sensor_id;sensor_type;location;lat;lon;timestamp;P1;durP1;ratioP1;P2;durP2;ratioP2
75169;SDS011;63749;49.186;9.222;2024-01-30T00:00:21;50.10;;;24.57;;
75169;SDS011;63749;49.186;9.222;2024-01-30T00:02:46;52.93;;;25.50;;
75169;SDS011;63749;49.186;9.222;2024-01-30T00:05:12;50.60;;;24.25;;
75169;SDS011;63749;49.186;9.222;2024-01-30T00:07:37;52.93;;;23.87;;
75169;SDS011;63749;49.186;9.222;2024-01-30T00:10:02;43.60;;;22.97;;
75169;SDS011;63749;49.186;9.222;2024-01-30T00:12:28;50.53;;;23.60;;
75169;SDS011;63749;49.186;9.222;2024-01-30T00:14:53;48.00;;;23.90;;
75169;SDS011;63749;49.186;9.222;2024-01-30T00:17:19;45.40;;;22.50;;
75169;SDS011;63749;49.186;9.222;2024-01-30T00:19:45;47.97;;;23.27;;
75169;SDS011;63749;49.186;9.222;2024-01-30T00:22:11;49.23;;;23.13;;
75169;SDS011;63749;49.186;9.222;2024-01-30T00:24:36;49.03;;;24.20;;
75169;SDS011;63749;49.186;9.222;2024-01-30T00:27:02;52.80;;;25.87;;
75169;SDS011;63749;49.186;9.222;2024-01-30T00:29:27;47.88;;;24.65;;
75169;SDS011;63749;49.186;9.222;2024-01-30T00:31:56;48.80;;;24.53;;
75169;SDS011;63749;49.186;9.222;2024-01-30T00:34:21;51.88;;;25.25;;
75169;SDS011;63749;49.186;9.222;2024-01-30T00:36:46;52.37;;;24.60;;
75169;SDS011;63749;49.186;9.222;2024-01-30T00:39:12;52.77;;;25.13;;
75169;SDS011;63749;49.186;9.222;2024-01-30T00:41:37;51.30;;;25.10;;
75169;SDS011;63749;49.186;9.222;2024-01-30T00:44:03;52.13;;;23.77;;
75169;SDS011;63749;49.186;9.222;2024-01-30T00:46:28;47.53;;;24.10;;
75169;SDS011;63749;49.186;9.222;2024-01-30T00:48:54;50.60;;;23.80;;
75169;SDS011;63749;49.186;9.222;2024-01-30T00:51:19;47.80;;;23.17;;
75169;SDS011;63749;49.186;9.222;2024-01-30T00:53:44;44.30;;;23.05;;
75169;SDS011;63749;49.186;9.222;2024-01-30T00:56:10;42.40;;;22.10;;
75169;SDS011;63749;49.186;9.222;2024-01-30T00:58:35;45.70;;;23.03;;
75169;SDS011;63749;49.186;9.222;2024-01-30T01:01:01;42.63;;;21.93;;
75169;SDS011;63749;49.186;9.222;2024-01-30T01:03:27;44.88;;;21.83;;
75169;SDS011;63749;49.186;9.222;2024-01-30T01:05:52;45.07;;;21.90;;
75169;SDS011;63749;49.186;9.222;2024-01-30T01:08:18;43.40;;;22.33;;
75169;SDS011;63749;49.186;9.222;2024-01-30T01:10:43;45.20;;;21.58;;
75169;SDS011;63749;49.186;9.222;2024-01-30T01:13:08;44.83;;;20.87;;
75169;SDS011;63749;49.186;9.222;2024-01-30T01:15:34;40.73;;;20.10;;
75169;SDS011;63749;49.186;9.222;2024-01-30T01:18:00;37.60;;;20.15;;
75169;SDS011;63749;49.186;9.222;2024-01-30T01:20:25;41.30;;;20.47;;
75169;SDS011;63749;49.186;9.222;2024-01-30T01:22:50;48.97;;;19.97;;
75169;SDS011;63749;49.186;9.222;2024-01-30T01:25:17;44.00;;;20.02;;
75169;SDS011;63749;49.186;9.222;2024-01-30T01:27:42;38.97;;;19.30;;
75169;SDS011;63749;49.186;9.222;2024-01-30T01:30:09;40.83;;;20.17;;
75169;SDS011;63749;49.186;9.222;2024-01-30T01:32:36;38.15;;;19.88;;
75169;SDS011;63749;49.186;9.222;2024-01-30T01:35:03;42.40;;;19.73;;
75169;SDS011;63749;49.186;9.222;2024-01-30T01:37:30;42.22;;;21.00;;
75169;SDS011;63749;49.186;9.222;2024-01-30T01:39:56;41.15;;;20.88;;
75169;SDS011;63749;49.186;9.222;2024-01-30T01:42:21;44.43;;;22.10;;
75169;SDS011;63749;49.186;9.222;2024-01-30T01:44:47;44.63;;;23.05;;
75169;SDS011;63749;49.186;9.222;2024-01-30T01:47:13;45.40;;;23.40;;
75169;SDS011;63749;49.186;9.222;2024-01-30T01:49:39;48.35;;;23.35;;
75169;SDS011;63749;49.186;9.222;2024-01-30T01:52:04;50.17;;;23.77;;
75169;SDS011;63749;49.186;9.222;2024-01-30T01:54:30;45.30;;;23.58;;
75169;SDS011;63749;49.186;9.222;2024-01-30T01:56:56;45.67;;;23.83;;
75169;SDS011;63749;49.186;9.222;2024-01-30T01:59:22;49.25;;;22.80;;
75169;SDS011;63749;49.186;9.222;2024-01-30T02:01:48;49.57;;;24.90;;
75169;SDS011;63749;49.186;9.222;2024-01-30T02:04:15;54.30;;;24.80;;
75169;SDS011;63749;49.186;9.222;2024-01-30T02:06:41;49.85;;;23.63;;
75169;SDS011;63749;49.186;9.222;2024-01-30T02:09:06;53.83;;;24.83;;
75169;SDS011;63749;49.186;9.222;2024-01-30T02:11:32;46.20;;;23.43;;
75169;SDS011;63749;49.186;9.222;2024-01-30T02:14:01;44.28;;;22.95;;
75169;SDS011;63749;49.186;9.222;2024-01-30T02:16:27;50.40;;;25.33;;
75169;SDS011;63749;49.186;9.222;2024-01-30T02:18:53;46.53;;;23.83;;
75169;SDS011;63749;49.186;9.222;2024-01-30T02:21:18;43.37;;;22.57;;
75169;SDS011;63749;49.186;9.222;2024-01-30T02:23:44;44.97;;;22.17;;
75169;SDS011;63749;49.186;9.222;2024-01-30T02:26:12;46.53;;;22.85;;
75169;SDS011;63749;49.186;9.222;2024-01-30T02:28:37;44.95;;;22.70;;
75169;SDS011;63749;49.186;9.222;2024-01-30T02:31:03;47.23;;;22.53;;
75169;SDS011;63749;49.186;9.222;2024-01-30T02:33:29;45.50;;;22.50;;
75169;SDS011;63749;49.186;9.222;2024-01-30T02:35:54;43.47;;;23.23;;
75169;SDS011;63749;49.186;9.222;2024-01-30T02:38:20;42.17;;;22.50;;
75169;SDS011;63749;49.186;9.222;2024-01-30T02:40:45;44.13;;;22.50;;
75169;SDS011;63749;49.186;9.222;2024-01-30T02:43:11;45.67;;;22.47;;
75169;SDS011;63749;49.186;9.222;2024-01-30T02:45:37;44.47;;;21.83;;
75169;SDS011;63749;49.186;9.222;2024-01-30T02:48:02;42.27;;;20.67;;
75169;SDS011;63749;49.186;9.222;2024-01-30T02:50:28;45.93;;;22.57;;
75169;SDS011;63749;49.186;9.222;2024-01-30T02:52:53;42.30;;;22.03;;
75169;SDS011;63749;49.186;9.222;2024-01-30T02:55:18;44.20;;;22.10;;
75169;SDS011;63749;49.186;9.222;2024-01-30T02:57:44;41.00;;;21.77;;
75169;SDS011;63749;49.186;9.222;2024-01-30T03:00:09;40.90;;;20.87;;
75169;SDS011;63749;49.186;9.222;2024-01-30T03:02:35;45.15;;;21.20;;
75169;SDS011;63749;49.186;9.222;2024-01-30T03:05:02;43.08;;;21.17;;
75169;SDS011;63749;49.186;9.222;2024-01-30T03:07:28;43.20;;;21.73;;
75169;SDS011;63749;49.186;9.222;2024-01-30T03:09:54;42.80;;;21.33;;
75169;SDS011;63749;49.186;9.222;2024-01-30T03:12:20;44.23;;;21.30;;
75169;SDS011;63749;49.186;9.222;2024-01-30T03:14:46;41.60;;;21.52;;
75169;SDS011;63749;49.186;9.222;2024-01-30T03:17:11;41.93;;;21.03;;
75169;SDS011;63749;49.186;9.222;2024-01-30T03:19:36;48.03;;;21.83;;
75169;SDS011;63749;49.186;9.222;2024-01-30T03:22:02;43.83;;;21.37;;
75169;SDS011;63749;49.186;9.222;2024-01-30T03:24:27;52.63;;;23.23;;
75169;SDS011;63749;49.186;9.222;2024-01-30T03:26:53;50.10;;;22.57;;
75169;SDS011;63749;49.186;9.222;2024-01-30T03:29:18;47.60;;;21.30;;
75169;SDS011;63749;49.186;9.222;2024-01-30T03:31:44;44.97;;;21.07;;
75169;SDS011;63749;49.186;9.222;2024-01-30T03:34:09;43.10;;;21.00;;
75169;SDS011;63749;49.186;9.222;2024-01-30T03:36:34;42.70;;;20.33;;
75169;SDS011;63749;49.186;9.222;2024-01-30T03:39:00;43.73;;;20.47;;
75169;SDS011;63749;49.186;9.222;2024-01-30T03:41:26;45.17;;;21.80;;
75169;SDS011;63749;49.186;9.222;2024-01-30T03:43:51;51.30;;;23.20;;
75169;SDS011;63749;49.186;9.222;2024-01-30T03:46:17;49.13;;;23.20;;
75169;SDS011;63749;49.186;9.222;2024-01-30T03:48:42;50.33;;;22.60;;
75169;SDS011;63749;49.186;9.222;2024-01-30T03:51:08;55.70;;;24.37;;
75169;SDS011;63749;49.186;9.222;2024-01-30T03:53:34;48.23;;;22.37;;
75169;SDS011;63749;49.186;9.222;2024-01-30T03:55:59;49.00;;;21.52;;
75169;SDS011;63749;49.186;9.222;2024-01-30T03:58:25;44.83;;;21.50;;
75169;SDS011;63749;49.186;9.222;2024-01-30T04:00:50;44.27;;;21.27;;
75169;SDS011;63749;49.186;9.222;2024-01-30T04:03:15;40.30;;;21.13;;
75169;SDS011;63749;49.186;9.222;2024-01-30T04:05:41;45.57;;;21.30;;
75169;SDS011;63749;49.186;9.222;2024-01-30T04:08:07;50.33;;;23.00;;
75169;SDS011;63749;49.186;9.222;2024-01-30T04:10:32;51.63;;;24.92;;
75169;SDS011;63749;49.186;9.222;2024-01-30T04:12:58;51.73;;;24.67;;
75169;SDS011;63749;49.186;9.222;2024-01-30T04:15:24;52.53;;;24.75;;
75169;SDS011;63749;49.186;9.222;2024-01-30T04:17:50;52.03;;;23.93;;
75169;SDS011;63749;49.186;9.222;2024-01-30T04:20:15;52.78;;;23.85;;
75169;SDS011;63749;49.186;9.222;2024-01-30T04:22:45;51.73;;;24.47;;
75169;SDS011;63749;49.186;9.222;2024-01-30T04:25:11;48.90;;;23.50;;
75169;SDS011;63749;49.186;9.222;2024-01-30T04:27:37;49.10;;;23.77;;
75169;SDS011;63749;49.186;9.222;2024-01-30T04:30:03;52.87;;;24.43;;
75169;SDS011;63749;49.186;9.222;2024-01-30T04:32:28;52.30;;;24.38;;
75169;SDS011;63749;49.186;9.222;2024-01-30T04:34:54;48.93;;;24.30;;
75169;SDS011;63749;49.186;9.222;2024-01-30T04:37:19;55.00;;;25.53;;
75169;SDS011;63749;49.186;9.222;2024-01-30T04:39:46;55.77;;;26.63;;
75169;SDS011;63749;49.186;9.222;2024-01-30T04:42:12;55.33;;;25.40;;
75169;SDS011;63749;49.186;9.222;2024-01-30T04:44:38;48.00;;;23.55;;
75169;SDS011;63749;49.186;9.222;2024-01-30T04:47:04;48.93;;;22.80;;
75169;SDS011;63749;49.186;9.222;2024-01-30T04:49:31;47.50;;;22.90;;
75169;SDS011;63749;49.186;9.222;2024-01-30T04:51:56;47.17;;;22.43;;
75169;SDS011;63749;49.186;9.222;2024-01-30T04:54:22;48.75;;;23.10;;
75169;SDS011;63749;49.186;9.222;2024-01-30T04:56:47;49.17;;;22.67;;
75169;SDS011;63749;49.186;9.222;2024-01-30T04:59:12;46.60;;;23.10;;
75169;SDS011;63749;49.186;9.222;2024-01-30T05:01:38;48.63;;;23.40;;
75169;SDS011;63749;49.186;9.222;2024-01-30T05:04:03;48.63;;;22.60;;
75169;SDS011;63749;49.186;9.222;2024-01-30T05:06:29;45.03;;;22.60;;
75169;SDS011;63749;49.186;9.222;2024-01-30T05:08:54;43.65;;;21.92;;
75169;SDS011;63749;49.186;9.222;2024-01-30T05:11:20;48.90;;;22.03;;
75169;SDS011;63749;49.186;9.222;2024-01-30T05:13:46;43.35;;;21.35;;
75169;SDS011;63749;49.186;9.222;2024-01-30T05:16:11;45.73;;;21.63;;
75169;SDS011;63749;49.186;9.222;2024-01-30T05:18:36;44.07;;;22.70;;
75169;SDS011;63749;49.186;9.222;2024-01-30T05:21:02;45.10;;;21.73;;
75169;SDS011;63749;49.186;9.222;2024-01-30T05:23:28;43.30;;;21.65;;
75169;SDS011;63749;49.186;9.222;2024-01-30T05:25:53;49.23;;;23.03;;
75169;SDS011;63749;49.186;9.222;2024-01-30T05:28:19;52.13;;;24.83;;
75169;SDS011;63749;49.186;9.222;2024-01-30T05:30:44;52.78;;;24.70;;
75169;SDS011;63749;49.186;9.222;2024-01-30T05:33:10;55.53;;;23.97;;
75169;SDS011;63749;49.186;9.222;2024-01-30T05:35:37;52.15;;;25.02;;
75169;SDS011;63749;49.186;9.222;2024-01-30T05:38:02;49.80;;;24.13;;
75169;SDS011;63749;49.186;9.222;2024-01-30T05:40:28;56.33;;;25.63;;
75169;SDS011;63749;49.186;9.222;2024-01-30T05:42:53;49.47;;;23.40;;
75169;SDS011;63749;49.186;9.222;2024-01-30T05:45:20;49.58;;;24.50;;
75169;SDS011;63749;49.186;9.222;2024-01-30T05:47:49;46.17;;;21.20;;
75169;SDS011;63749;49.186;9.222;2024-01-30T05:50:15;45.42;;;20.25;;
75169;SDS011;63749;49.186;9.222;2024-01-30T05:52:40;44.13;;;21.10;;
75169;SDS011;63749;49.186;9.222;2024-01-30T05:55:06;43.50;;;21.43;;
75169;SDS011;63749;49.186;9.222;2024-01-30T05:57:33;44.78;;;20.60;;
75169;SDS011;63749;49.186;9.222;2024-01-30T05:59:58;43.20;;;21.63;;
75169;SDS011;63749;49.186;9.222;2024-01-30T06:02:25;44.73;;;20.60;;
75169;SDS011;63749;49.186;9.222;2024-01-30T06:04:51;40.70;;;20.77;;
75169;SDS011;63749;49.186;9.222;2024-01-30T06:07:19;41.90;;;20.02;;
75169;SDS011;63749;49.186;9.222;2024-01-30T06:09:44;40.90;;;20.03;;
75169;SDS011;63749;49.186;9.222;2024-01-30T06:12:11;37.55;;;18.60;;
75169;SDS011;63749;49.186;9.222;2024-01-30T06:14:37;41.78;;;20.35;;
75169;SDS011;63749;49.186;9.222;2024-01-30T06:17:02;42.33;;;20.40;;
75169;SDS011;63749;49.186;9.222;2024-01-30T06:19:28;46.93;;;21.07;;
75169;SDS011;63749;49.186;9.222;2024-01-30T06:21:53;48.40;;;23.53;;
75169;SDS011;63749;49.186;9.222;2024-01-30T06:24:19;49.00;;;24.43;;
75169;SDS011;63749;49.186;9.222;2024-01-30T06:26:44;43.20;;;21.92;;
75169;SDS011;63749;49.186;9.222;2024-01-30T06:29:09;44.13;;;21.93;;
75169;SDS011;63749;49.186;9.222;2024-01-30T06:31:41;44.67;;;21.70;;
75169;SDS011;63749;49.186;9.222;2024-01-30T06:34:07;43.20;;;21.70;;
75169;SDS011;63749;49.186;9.222;2024-01-30T06:36:32;45.93;;;22.17;;
75169;SDS011;63749;49.186;9.222;2024-01-30T06:38:58;48.27;;;22.77;;
75169;SDS011;63749;49.186;9.222;2024-01-30T06:41:23;47.70;;;22.43;;
75169;SDS011;63749;49.186;9.222;2024-01-30T06:43:49;44.47;;;22.53;;
75169;SDS011;63749;49.186;9.222;2024-01-30T06:46:14;44.78;;;22.13;;
75169;SDS011;63749;49.186;9.222;2024-01-30T06:48:40;49.27;;;23.53;;
75169;SDS011;63749;49.186;9.222;2024-01-30T06:51:05;47.63;;;23.10;;
75169;SDS011;63749;49.186;9.222;2024-01-30T06:53:31;49.90;;;22.63;;
75169;SDS011;63749;49.186;9.222;2024-01-30T06:55:57;43.30;;;21.73;;
75169;SDS011;63749;49.186;9.222;2024-01-30T06:58:22;38.53;;;19.90;;
75169;SDS011;63749;49.186;9.222;2024-01-30T07:00:47;41.57;;;20.37;;
75169;SDS011;63749;49.186;9.222;2024-01-30T07:03:13;38.87;;;20.20;;
75169;SDS011;63749;49.186;9.222;2024-01-30T07:05:38;39.00;;;20.23;;
75169;SDS011;63749;49.186;9.222;2024-01-30T07:08:04;42.40;;;19.67;;
75169;SDS011;63749;49.186;9.222;2024-01-30T07:10:29;38.28;;;19.85;;
75169;SDS011;63749;49.186;9.222;2024-01-30T07:12:56;44.70;;;20.38;;
75169;SDS011;63749;49.186;9.222;2024-01-30T07:15:22;42.80;;;20.50;;
75169;SDS011;63749;49.186;9.222;2024-01-30T07:17:47;42.47;;;21.23;;
75169;SDS011;63749;49.186;9.222;2024-01-30T07:20:12;40.33;;;20.50;;
75169;SDS011;63749;49.186;9.222;2024-01-30T07:22:38;39.10;;;20.65;;
75169;SDS011;63749;49.186;9.222;2024-01-30T07:25:03;46.70;;;22.10;;
75169;SDS011;63749;49.186;9.222;2024-01-30T07:27:29;44.40;;;22.27;;
75169;SDS011;63749;49.186;9.222;2024-01-30T07:29:54;44.38;;;22.83;;
75169;SDS011;63749;49.186;9.222;2024-01-30T07:32:20;47.17;;;21.57;;
75169;SDS011;63749;49.186;9.222;2024-01-30T07:34:45;47.37;;;21.37;;
75169;SDS011;63749;49.186;9.222;2024-01-30T07:37:10;53.87;;;25.63;;
75169;SDS011;63749;49.186;9.222;2024-01-30T07:39:40;51.75;;;27.23;;
75169;SDS011;63749;49.186;9.222;2024-01-30T07:42:05;57.07;;;26.67;;
75169;SDS011;63749;49.186;9.222;2024-01-30T07:44:31;49.07;;;22.73;;
75169;SDS011;63749;49.186;9.222;2024-01-30T07:46:56;48.77;;;22.77;;
75169;SDS011;63749;49.186;9.222;2024-01-30T07:49:22;54.92;;;26.27;;
75169;SDS011;63749;49.186;9.222;2024-01-30T07:51:47;74.33;;;33.10;;
75169;SDS011;63749;49.186;9.222;2024-01-30T07:54:13;63.00;;;30.23;;
75169;SDS011;63749;49.186;9.222;2024-01-30T07:56:38;52.40;;;25.67;;
75169;SDS011;63749;49.186;9.222;2024-01-30T07:59:03;53.13;;;24.43;;
75169;SDS011;63749;49.186;9.222;2024-01-30T08:01:29;47.50;;;23.27;;
75169;SDS011;63749;49.186;9.222;2024-01-30T08:03:54;44.13;;;22.87;;
75169;SDS011;63749;49.186;9.222;2024-01-30T08:06:19;48.63;;;23.87;;
75169;SDS011;63749;49.186;9.222;2024-01-30T08:08:45;47.23;;;23.40;;
75169;SDS011;63749;49.186;9.222;2024-01-30T08:11:10;56.23;;;27.43;;
75169;SDS011;63749;49.186;9.222;2024-01-30T08:13:36;44.85;;;23.25;;
75169;SDS011;63749;49.186;9.222;2024-01-30T08:16:01;44.70;;;22.10;;
75169;SDS011;63749;49.186;9.222;2024-01-30T08:18:28;47.67;;;24.83;;
75169;SDS011;63749;49.186;9.222;2024-01-30T08:20:53;46.13;;;22.07;;
75169;SDS011;63749;49.186;9.222;2024-01-30T08:23:18;47.87;;;23.50;;
75169;SDS011;63749;49.186;9.222;2024-01-30T08:25:44;43.27;;;21.87;;
75169;SDS011;63749;49.186;9.222;2024-01-30T08:28:09;45.07;;;21.80;;
75169;SDS011;63749;49.186;9.222;2024-01-30T08:30:34;49.30;;;22.43;;
75169;SDS011;63749;49.186;9.222;2024-01-30T08:33:00;46.67;;;21.23;;
75169;SDS011;63749;49.186;9.222;2024-01-30T08:35:26;40.93;;;21.90;;
75169;SDS011;63749;49.186;9.222;2024-01-30T08:37:51;44.97;;;22.23;;
75169;SDS011;63749;49.186;9.222;2024-01-30T08:40:16;52.10;;;22.80;;
75169;SDS011;63749;49.186;9.222;2024-01-30T08:42:42;42.63;;;20.87;;
75169;SDS011;63749;49.186;9.222;2024-01-30T08:45:07;41.03;;;20.97;;
75169;SDS011;63749;49.186;9.222;2024-01-30T08:47:34;43.53;;;20.92;;
75169;SDS011;63749;49.186;9.222;2024-01-30T08:49:59;42.30;;;20.93;;
75169;SDS011;63749;49.186;9.222;2024-01-30T08:52:25;35.63;;;19.87;;
75169;SDS011;63749;49.186;9.222;2024-01-30T08:54:50;37.10;;;20.43;;
75169;SDS011;63749;49.186;9.222;2024-01-30T08:57:15;42.20;;;20.70;;
75169;SDS011;63749;49.186;9.222;2024-01-30T08:59:41;40.20;;;21.30;;
75169;SDS011;63749;49.186;9.222;2024-01-30T09:02:06;37.83;;;20.17;;
75169;SDS011;63749;49.186;9.222;2024-01-30T09:04:31;37.80;;;20.23;;
75169;SDS011;63749;49.186;9.222;2024-01-30T09:06:57;40.80;;;20.73;;
75169;SDS011;63749;49.186;9.222;2024-01-30T09:09:22;38.03;;;20.47;;
75169;SDS011;63749;49.186;9.222;2024-01-30T09:11:47;36.07;;;20.17;;
75169;SDS011;63749;49.186;9.222;2024-01-30T09:14:13;36.73;;;19.60;;
75169;SDS011;63749;49.186;9.222;2024-01-30T09:16:38;40.43;;;20.33;;
75169;SDS011;63749;49.186;9.222;2024-01-30T09:19:03;37.73;;;20.67;;
75169;SDS011;63749;49.186;9.222;2024-01-30T09:21:29;37.90;;;20.97;;
75169;SDS011;63749;49.186;9.222;2024-01-30T09:23:54;37.83;;;20.03;;
75169;SDS011;63749;49.186;9.222;2024-01-30T09:26:20;34.17;;;19.33;;
75169;SDS011;63749;49.186;9.222;2024-01-30T09:28:45;32.77;;;17.93;;
75169;SDS011;63749;49.186;9.222;2024-01-30T09:31:13;35.43;;;17.77;;
75169;SDS011;63749;49.186;9.222;2024-01-30T09:33:39;34.13;;;18.55;;
75169;SDS011;63749;49.186;9.222;2024-01-30T09:36:07;36.30;;;17.67;;
75169;SDS011;63749;49.186;9.222;2024-01-30T09:38:33;31.08;;;16.40;;
75169;SDS011;63749;49.186;9.222;2024-01-30T09:40:59;37.77;;;16.77;;
75169;SDS011;63749;49.186;9.222;2024-01-30T09:43:28;32.72;;;16.35;;
75169;SDS011;63749;49.186;9.222;2024-01-30T09:45:58;28.33;;;16.00;;
75169;SDS011;63749;49.186;9.222;2024-01-30T09:48:24;26.80;;;14.83;;
75169;SDS011;63749;49.186;9.222;2024-01-30T09:50:51;29.40;;;15.88;;
75169;SDS011;63749;49.186;9.222;2024-01-30T09:53:17;26.05;;;14.20;;
75169;SDS011;63749;49.186;9.222;2024-01-30T09:55:43;30.73;;;14.60;;
75169;SDS011;63749;49.186;9.222;2024-01-30T09:58:09;29.27;;;15.63;;
75169;SDS011;63749;49.186;9.222;2024-01-30T10:00:34;23.47;;;13.50;;
75169;SDS011;63749;49.186;9.222;2024-01-30T10:02:59;27.67;;;14.13;;
75169;SDS011;63749;49.186;9.222;2024-01-30T10:05:26;25.50;;;13.97;;
75169;SDS011;63749;49.186;9.222;2024-01-30T10:07:53;30.05;;;15.18;;
75169;SDS011;63749;49.186;9.222;2024-01-30T10:10:21;24.90;;;14.20;;
75169;SDS011;63749;49.186;9.222;2024-01-30T10:12:47;27.10;;;13.80;;
75169;SDS011;63749;49.186;9.222;2024-01-30T10:15:13;28.50;;;14.38;;
75169;SDS011;63749;49.186;9.222;2024-01-30T10:17:39;25.73;;;14.27;;
75169;SDS011;63749;49.186;9.222;2024-01-30T10:20:04;28.23;;;14.93;;
75169;SDS011;63749;49.186;9.222;2024-01-30T10:22:30;30.80;;;16.20;;
75169;SDS011;63749;49.186;9.222;2024-01-30T10:24:56;30.27;;;15.53;;
75169;SDS011;63749;49.186;9.222;2024-01-30T10:27:27;25.17;;;14.75;;
75169;SDS011;63749;49.186;9.222;2024-01-30T10:29:54;26.55;;;14.80;;
75169;SDS011;63749;49.186;9.222;2024-01-30T10:32:20;31.57;;;15.13;;
75169;SDS011;63749;49.186;9.222;2024-01-30T10:34:46;27.23;;;15.05;;
75169;SDS011;63749;49.186;9.222;2024-01-30T10:37:11;30.85;;;15.75;;
75169;SDS011;63749;49.186;9.222;2024-01-30T10:39:43;27.37;;;15.93;;
75169;SDS011;63749;49.186;9.222;2024-01-30T10:42:13;26.40;;;14.77;;
75169;SDS011;63749;49.186;9.222;2024-01-30T10:47:12;25.23;;;14.45;;
75169;SDS011;63749;49.186;9.222;2024-01-30T10:49:39;25.92;;;14.80;;
75169;SDS011;63749;49.186;9.222;2024-01-30T10:52:07;24.93;;;15.20;;
75169;SDS011;63749;49.186;9.222;2024-01-30T10:54:34;28.40;;;14.52;;
75169;SDS011;63749;49.186;9.222;2024-01-30T10:57:00;26.05;;;14.57;;
75169;SDS011;63749;49.186;9.222;2024-01-30T10:59:28;27.88;;;15.20;;
75169;SDS011;63749;49.186;9.222;2024-01-30T11:01:55;26.23;;;14.80;;
75169;SDS011;63749;49.186;9.222;2024-01-30T11:04:22;25.73;;;14.70;;
75169;SDS011;63749;49.186;9.222;2024-01-30T11:06:49;27.17;;;14.17;;
75169;SDS011;63749;49.186;9.222;2024-01-30T11:09:16;27.52;;;15.30;;
75169;SDS011;63749;49.186;9.222;2024-01-30T11:11:52;24.42;;;14.52;;
75169;SDS011;63749;49.186;9.222;2024-01-30T11:14:25;24.38;;;13.75;;
75169;SDS011;63749;49.186;9.222;2024-01-30T11:16:51;25.52;;;14.38;;
75169;SDS011;63749;49.186;9.222;2024-01-30T11:19:22;26.23;;;14.33;;
75169;SDS011;63749;49.186;9.222;2024-01-30T11:21:50;27.50;;;15.32;;
75169;SDS011;63749;49.186;9.222;2024-01-30T11:24:19;29.47;;;14.60;;
75169;SDS011;63749;49.186;9.222;2024-01-30T11:26:44;27.95;;;14.40;;
75169;SDS011;63749;49.186;9.222;2024-01-30T11:29:13;36.73;;;14.40;;
75169;SDS011;63749;49.186;9.222;2024-01-30T11:31:38;26.38;;;14.30;;
75169;SDS011;63749;49.186;9.222;2024-01-30T11:34:04;25.63;;;14.67;;
75169;SDS011;63749;49.186;9.222;2024-01-30T11:36:30;22.95;;;13.63;;
75169;SDS011;63749;49.186;9.222;2024-01-30T11:39:01;25.63;;;13.73;;
75169;SDS011;63749;49.186;9.222;2024-01-30T11:41:27;25.35;;;13.88;;
75169;SDS011;63749;49.186;9.222;2024-01-30T11:43:53;25.37;;;13.93;;
75169;SDS011;63749;49.186;9.222;2024-01-30T11:46:19;23.42;;;13.30;;
75169;SDS011;63749;49.186;9.222;2024-01-30T11:48:44;25.43;;;13.20;;
75169;SDS011;63749;49.186;9.222;2024-01-30T11:51:11;24.75;;;12.23;;
75169;SDS011;63749;49.186;9.222;2024-01-30T11:53:38;22.10;;;13.50;;
75169;SDS011;63749;49.186;9.222;2024-01-30T11:56:05;23.23;;;13.17;;
75169;SDS011;63749;49.186;9.222;2024-01-30T11:58:31;22.30;;;13.00;;
75169;SDS011;63749;49.186;9.222;2024-01-30T12:00:56;22.73;;;13.70;;
75169;SDS011;63749;49.186;9.222;2024-01-30T12:03:22;22.67;;;13.23;;
75169;SDS011;63749;49.186;9.222;2024-01-30T12:05:54;25.57;;;13.33;;
75169;SDS011;63749;49.186;9.222;2024-01-30T12:08:20;24.15;;;13.15;;
75169;SDS011;63749;49.186;9.222;2024-01-30T12:10:46;19.83;;;13.10;;
75169;SDS011;63749;49.186;9.222;2024-01-30T12:13:11;22.57;;;13.03;;
75169;SDS011;63749;49.186;9.222;2024-01-30T12:15:37;21.88;;;12.68;;
75169;SDS011;63749;49.186;9.222;2024-01-30T12:18:03;21.55;;;13.10;;
75169;SDS011;63749;49.186;9.222;2024-01-30T12:20:32;24.93;;;13.00;;
75169;SDS011;63749;49.186;9.222;2024-01-30T12:22:58;22.52;;;13.38;;
75169;SDS011;63749;49.186;9.222;2024-01-30T12:25:23;22.47;;;12.67;;
75169;SDS011;63749;49.186;9.222;2024-01-30T12:27:49;23.83;;;12.53;;
75169;SDS011;63749;49.186;9.222;2024-01-30T12:30:16;24.20;;;12.85;;
75169;SDS011;63749;49.186;9.222;2024-01-30T12:32:43;22.13;;;12.93;;
75169;SDS011;63749;49.186;9.222;2024-01-30T12:35:19;25.02;;;13.38;;
75169;SDS011;63749;49.186;9.222;2024-01-30T12:37:45;22.88;;;12.93;;
75169;SDS011;63749;49.186;9.222;2024-01-30T12:40:13;20.00;;;12.23;;
75169;SDS011;63749;49.186;9.222;2024-01-30T12:42:43;21.95;;;13.15;;
75169;SDS011;63749;49.186;9.222;2024-01-30T12:45:11;23.63;;;13.90;;
75169;SDS011;63749;49.186;9.222;2024-01-30T12:47:36;23.47;;;13.73;;
75169;SDS011;63749;49.186;9.222;2024-01-30T12:50:02;29.00;;;13.50;;
75169;SDS011;63749;49.186;9.222;2024-01-30T12:52:28;25.05;;;13.88;;
75169;SDS011;63749;49.186;9.222;2024-01-30T12:54:54;21.70;;;12.98;;
75169;SDS011;63749;49.186;9.222;2024-01-30T12:57:19;25.13;;;13.67;;
75169;SDS011;63749;49.186;9.222;2024-01-30T12:59:45;23.25;;;13.93;;
75169;SDS011;63749;49.186;9.222;2024-01-30T13:02:11;21.70;;;13.30;;
75169;SDS011;63749;49.186;9.222;2024-01-30T13:04:37;25.48;;;14.15;;
75169;SDS011;63749;49.186;9.222;2024-01-30T13:07:03;28.57;;;15.07;;
75169;SDS011;63749;49.186;9.222;2024-01-30T13:09:29;23.23;;;14.13;;
75169;SDS011;63749;49.186;9.222;2024-01-30T13:11:55;25.20;;;15.10;;
75169;SDS011;63749;49.186;9.222;2024-01-30T13:14:20;26.05;;;14.70;;
75169;SDS011;63749;49.186;9.222;2024-01-30T13:16:46;24.30;;;14.93;;
75169;SDS011;63749;49.186;9.222;2024-01-30T13:19:11;26.03;;;14.97;;
75169;SDS011;63749;49.186;9.222;2024-01-30T13:21:37;24.33;;;14.27;;
75169;SDS011;63749;49.186;9.222;2024-01-30T13:24:02;31.02;;;15.18;;
75169;SDS011;63749;49.186;9.222;2024-01-30T13:26:28;26.93;;;15.60;;
75169;SDS011;63749;49.186;9.222;2024-01-30T13:28:53;27.50;;;15.93;;
75169;SDS011;63749;49.186;9.222;2024-01-30T13:31:19;27.90;;;15.73;;
75169;SDS011;63749;49.186;9.222;2024-01-30T13:33:44;27.83;;;16.75;;
75169;SDS011;63749;49.186;9.222;2024-01-30T13:36:10;30.40;;;16.53;;
75169;SDS011;63749;49.186;9.222;2024-01-30T13:38:36;25.00;;;15.15;;
75169;SDS011;63749;49.186;9.222;2024-01-30T13:41:01;21.30;;;13.97;;
75169;SDS011;63749;49.186;9.222;2024-01-30T13:43:27;23.88;;;14.45;;
75169;SDS011;63749;49.186;9.222;2024-01-30T13:45:53;24.83;;;14.40;;
75169;SDS011;63749;49.186;9.222;2024-01-30T13:48:19;22.45;;;14.00;;
75169;SDS011;63749;49.186;9.222;2024-01-30T13:50:44;22.93;;;14.13;;
75169;SDS011;63749;49.186;9.222;2024-01-30T13:53:09;22.40;;;14.07;;
75169;SDS011;63749;49.186;9.222;2024-01-30T13:55:35;26.45;;;14.80;;
75169;SDS011;63749;49.186;9.222;2024-01-30T13:58:00;28.40;;;15.00;;
75169;SDS011;63749;49.186;9.222;2024-01-30T14:00:28;28.52;;;14.95;;
75169;SDS011;63749;49.186;9.222;2024-01-30T14:02:53;27.57;;;14.27;;
75169;SDS011;63749;49.186;9.222;2024-01-30T14:05:23;27.05;;;14.20;;
75169;SDS011;63749;49.186;9.222;2024-01-30T14:07:49;26.67;;;13.63;;
75169;SDS011;63749;49.186;9.222;2024-01-30T14:10:15;24.45;;;14.63;;
75169;SDS011;63749;49.186;9.222;2024-01-30T14:12:41;27.03;;;14.53;;
75169;SDS011;63749;49.186;9.222;2024-01-30T14:15:07;28.92;;;15.15;;